Time;durP1;ratioP1;P1;durP2;ratioP2;P2;SDS_P1;SDS_P2;PMS_P1;PMS_P2;Temp;Humidity;BMP_temperature;BMP_pressure;BME280_temperature;BME280_humidity;BME280_pressure;Samples;Min_cycle;Max_cycle;Signal;HPM_P1;HPM_P2
2022/09/19 00:01:53;;;;;;;2.55;1.13;;;15.20;99.90;;;;;;5051119;28;20044;-81
2022/09/19 00:04:28;;;;;;;5.45;1.30;;;15.30;99.90;;;;;;5053270;28;20102;-81
2022/09/19 00:06:56;;;;;;;3.60;1.00;;;15.40;99.90;;;;;;5053141;28;20051;-79
2022/09/19 00:09:27;;;;;;;2.08;0.85;;;15.50;99.90;;;;;;5050199;28;20086;-81
2022/09/19 00:11:55;;;;;;;3.03;0.90;;;15.50;99.90;;;;;;5053218;28;20155;-80
2022/09/19 00:14:26;;;;;;;4.95;0.73;;;15.50;99.90;;;;;;5050965;28;20059;-81
2022/09/19 00:17:00;;;;;;;2.03;1.20;;;15.50;99.90;;;;;;5053392;28;20477;-77
2022/09/19 00:19:28;;;;;;;1.98;0.50;;;15.60;99.90;;;;;;5031258;28;20028;-75
2022/09/19 00:22:00;;;;;;;5.88;0.85;;;15.50;99.90;;;;;;5032358;28;20040;-80
2022/09/19 00:24:49;;;;;;;3.60;0.93;;;15.40;99.90;;;;;;5032574;28;20017;-76
2022/09/19 00:27:34;;;;;;;5.93;1.00;;;15.40;99.90;;;;;;5032470;28;20455;-80
2022/09/19 00:30:02;;;;;;;2.03;1.00;;;15.40;99.90;;;;;;5031367;28;20471;-75
2022/09/19 00:32:31;;;;;;;2.45;0.88;;;15.40;99.90;;;;;;5031319;28;20037;-76
2022/09/19 00:34:59;;;;;;;4.32;0.68;;;15.50;99.90;;;;;;5030887;28;20825;-77
2022/09/19 00:37:27;;;;;;;1.00;0.50;;;15.60;99.90;;;;;;5030725;28;20021;-76
2022/09/19 00:39:55;;;;;;;5.43;0.90;;;15.60;99.90;;;;;;5030584;28;20030;-77
2022/09/19 00:42:25;;;;;;;2.40;0.77;;;15.60;99.90;;;;;;5030868;28;20379;-76
2022/09/19 00:45:15;;;;;;;1.75;0.45;;;15.60;99.90;;;;;;5031388;28;20097;-77
2022/09/19 00:47:48;;;;;;;2.65;0.77;;;15.70;99.90;;;;;;5031641;28;20025;-76
2022/09/19 00:50:24;;;;;;;1.02;0.47;;;15.80;99.90;;;;;;5032070;28;20022;-81
2022/09/19 00:53:04;;;;;;;1.05;0.50;;;15.90;99.90;;;;;;5033465;28;20025;-81
2022/09/19 00:55:32;;;;;;;5.93;0.90;;;15.90;99.90;;;;;;5033121;28;20029;-80
2022/09/19 00:58:18;;;;;;;7.13;0.80;;;15.90;99.90;;;;;;5033104;28;20120;-78
2022/09/19 01:00:46;;;;;;;2.25;0.88;;;16.00;99.90;;;;;;5033410;28;20026;-74
2022/09/19 01:03:14;;;;;;;3.63;1.20;;;16.10;99.90;;;;;;5033115;28;20056;-78
2022/09/19 01:05:58;;;;;;;2.15;0.60;;;16.20;99.90;;;;;;5032447;28;20014;-76
2022/09/19 01:08:43;;;;;;;9.85;1.13;;;16.30;99.90;;;;;;5033350;28;20025;-77
2022/09/19 01:11:40;;;;;;;2.78;1.02;;;16.30;99.90;;;;;;5033005;28;20040;-76
2022/09/19 01:14:53;;;;;;;3.08;0.52;;;16.30;99.90;;;;;;5033267;28;20021;-76
2022/09/19 01:17:59;;;;;;;3.95;0.98;;;16.30;99.90;;;;;;5034055;28;20124;-77
2022/09/19 01:24:19;;;;;;;3.50;1.02;;;16.40;99.90;;;;;;5037029;28;20036;-77
2022/09/19 01:27:19;;;;;;;4.03;1.27;;;16.30;99.90;;;;;;5037059;28;20021;-77
2022/09/19 01:29:55;;;;;;;4.80;0.70;;;16.50;99.30;;;;;;5035953;28;20030;-77
2022/09/19 01:32:24;;;;;;;;;;;16.50;98.70;;;;;;5037211;28;20032;-77
2022/09/19 01:34:57;;;;;;;5.47;0.80;;;16.50;98.80;;;;;;5036537;28;20004;-77
2022/09/19 01:37:38;;;;;;;2.13;0.70;;;16.60;99.10;;;;;;5036623;28;20042;-79
2022/09/19 01:40:09;;;;;;;5.60;0.98;;;16.70;99.90;;;;;;5035507;28;20518;-76
2022/09/19 01:42:48;;;;;;;1.27;0.52;;;16.60;99.90;;;;;;5034412;28;20104;-77
2022/09/19 01:45:16;;;;;;;2.17;0.70;;;16.50;99.90;;;;;;5034102;28;20017;-76
2022/09/19 01:48:00;;;;;;;7.97;0.80;;;16.50;99.90;;;;;;5034130;28;20025;-77
2022/09/19 01:50:47;;;;;;;2.80;0.85;;;16.70;99.90;;;;;;5034134;28;20468;-75
2022/09/19 01:53:26;;;;;;;2.90;0.80;;;16.70;99.90;;;;;;5034044;28;20034;-77
2022/09/19 01:56:28;;;;;;;1.52;0.47;;;16.60;99.50;;;;;;5035219;28;20022;-78
2022/09/19 01:59:23;;;;;;;5.40;1.23;;;16.70;99.30;;;;;;5036067;28;20500;-76
2022/09/19 02:02:00;;;;;;;3.28;0.70;;;16.80;99.90;;;;;;5034716;28;20123;-76
2022/09/19 02:04:46;;;;;;;2.58;0.93;;;16.90;99.90;;;;;;5035940;28;20031;-77
2022/09/19 02:07:44;;;;;;;3.97;1.10;;;17.10;99.90;;;;;;5036135;28;20033;-76
2022/09/19 02:10:20;;;;;;;1.08;0.40;;;17.10;99.90;;;;;;5035653;28;20501;-77
2022/09/19 02:12:53;;;;;;;2.67;1.00;;;17.10;97.90;;;;;;5035734;28;20079;-77
2022/09/19 02:15:28;;;;;;;3.22;0.85;;;17.20;98.70;;;;;;5035962;28;20025;-73
2022/09/19 02:18:20;;;;;;;2.00;0.60;;;17.10;99.90;;;;;;5035783;28;20029;-76
2022/09/19 02:20:49;;;;;;;3.50;1.00;;;17.20;99.90;;;;;;5035543;28;20059;-75
2022/09/19 02:23:24;;;;;;;1.42;0.55;;;17.30;99.80;;;;;;5035348;28;20052;-75
2022/09/19 02:25:56;;;;;;;3.40;0.90;;;17.40;98.80;;;;;;5035508;28;20356;-76
2022/09/19 02:28:31;;;;;;;4.75;0.85;;;17.60;99.20;;;;;;5034931;28;20042;-76
2022/09/19 02:31:00;;;;;;;8.45;0.70;;;17.70;99.90;;;;;;5034816;28;20044;-76
2022/09/19 02:33:27;;;;;;;1.98;0.60;;;17.90;99.90;;;;;;5035399;28;20018;-77
2022/09/19 02:36:23;;;;;;;4.10;0.70;;;17.90;99.90;;;;;;5035364;28;20026;-76
2022/09/19 02:39:17;;;;;;;2.97;0.80;;;17.90;99.90;;;;;;5053526;28;20486;-77
2022/09/19 02:42:01;;;;;;;2.95;1.00;;;17.80;99.90;;;;;;5050533;28;20037;-76
2022/09/19 02:44:43;;;;;;;6.07;1.60;;;18.00;99.90;;;;;;5053048;28;20036;-77
2022/09/19 02:47:28;;;;;;;5.32;1.10;;;18.10;99.90;;;;;;5053234;28;20052;-76
2022/09/19 02:50:13;;;;;;;1.70;0.52;;;18.10;99.90;;;;;;5055448;28;20543;-77
2022/09/19 02:52:42;;;;;;;5.50;1.10;;;18.30;99.90;;;;;;5055295;28;20091;-77
2022/09/19 02:55:13;;;;;;;1.60;0.68;;;18.30;99.40;;;;;;5054441;28;20520;-80
2022/09/19 02:57:46;;;;;;;2.45;0.90;;;18.30;99.30;;;;;;5051703;28;20060;-80
2022/09/19 03:00:15;;;;;;;2.58;0.90;;;18.30;99.20;;;;;;5053399;28;20424;-80
2022/09/19 03:02:54;;;;;;;3.92;1.02;;;18.40;99.90;;;;;;5053102;28;20049;-80
2022/09/19 03:05:25;;;;;;;3.10;0.77;;;18.40;97.40;;;;;;5053225;28;20017;-80
2022/09/19 03:08:09;;;;;;;1.20;0.55;;;18.50;99.90;;;;;;5053282;28;20048;-80
2022/09/19 03:10:40;;;;;;;4.07;0.60;;;18.50;98.70;;;;;;5051973;28;20035;-81
2022/09/19 03:13:11;;;;;;;2.55;0.77;;;18.50;99.90;;;;;;5052529;28;20541;-80
2022/09/19 03:16:08;;;;;;;3.67;1.08;;;18.60;98.20;;;;;;5051169;28;20021;-80
2022/09/19 03:18:37;;;;;;;1.55;0.65;;;18.50;97.10;;;;;;5050011;28;20090;-80
2022/09/19 03:21:10;;;;;;;1.45;0.70;;;18.50;97.50;;;;;;5051484;28;20071;-80
2022/09/19 03:23:44;;;;;;;4.60;0.70;;;18.50;96.00;;;;;;5051403;28;20032;-81
2022/09/19 03:26:20;;;;;;;2.78;0.60;;;18.50;98.40;;;;;;5051884;28;20416;-80
2022/09/19 03:28:52;;;;;;;5.65;0.68;;;18.50;97.10;;;;;;5053325;28;20492;-81
2022/09/19 03:31:20;;;;;;;2.03;0.80;;;18.50;97.20;;;;;;5054697;28;20037;-81
2022/09/19 03:33:48;;;;;;;3.38;0.65;;;18.40;98.40;;;;;;5054926;28;20024;-81
2022/09/19 03:36:16;;;;;;;5.30;0.65;;;18.40;97.30;;;;;;5054665;28;20538;-80
2022/09/19 03:38:45;;;;;;;1.90;0.60;;;18.50;97.20;;;;;;5054919;28;20385;-81
2022/09/19 03:41:14;;;;;;;1.75;0.65;;;18.50;97.30;;;;;;5054398;28;20078;-81
2022/09/19 03:43:42;;;;;;;1.55;0.50;;;18.60;97.90;;;;;;5054626;28;20021;-81
2022/09/19 03:46:11;;;;;;;1.90;0.80;;;18.70;96.90;;;;;;5053170;28;20487;-81
2022/09/19 03:48:40;;;;;;;2.20;0.70;;;18.80;98.90;;;;;;5053430;28;20025;-82
2022/09/19 03:51:08;;;;;;;1.30;0.40;;;19.10;98.40;;;;;;5054581;28;20369;-81
2022/09/19 03:53:35;;;;;;;1.60;0.55;;;19.20;98.10;;;;;;5054692;28;20118;-81
2022/09/19 03:56:03;;;;;;;3.40;0.50;;;19.30;98.10;;;;;;5054241;28;20096;-81
2022/09/19 03:58:34;;;;;;;1.15;0.50;;;19.40;97.60;;;;;;5054379;28;20492;-81
2022/09/19 04:01:03;;;;;;;2.15;0.65;;;19.40;97.00;;;;;;5053933;28;20420;-81
2022/09/19 04:03:30;;;;;;;3.90;0.60;;;19.40;96.00;;;;;;5053832;28;20044;-81
2022/09/19 04:05:58;;;;;;;1.10;0.60;;;19.50;96.50;;;;;;5053804;28;20499;-81
2022/09/19 04:08:26;;;;;;;1.60;0.75;;;19.50;96.60;;;;;;5053793;28;20021;-81
2022/09/19 04:10:54;;;;;;;0.90;0.60;;;19.50;97.90;;;;;;5052654;28;20029;-80
2022/09/19 04:13:22;;;;;;;1.80;0.30;;;19.60;95.30;;;;;;5054277;28;20059;-81
2022/09/19 04:15:51;;;;;;;1.05;0.40;;;19.70;97.10;;;;;;5053570;28;20025;-80
2022/09/19 04:18:19;;;;;;;0.93;0.30;;;19.80;95.70;;;;;;5053792;28;20025;-79
2022/09/19 04:20:50;;;;;;;2.15;0.45;;;19.70;95.90;;;;;;5053694;28;20036;-81
2022/09/19 04:23:18;;;;;;;2.05;0.70;;;19.60;96.00;;;;;;5053751;28;20024;-79
2022/09/19 04:25:47;;;;;;;1.40;0.30;;;19.50;93.60;;;;;;5053814;28;20029;-79
2022/09/19 04:28:17;;;;;;;2.95;0.60;;;19.50;97.10;;;;;;5053712;28;20021;-80
2022/09/19 04:30:45;;;;;;;1.25;0.60;;;19.70;96.80;;;;;;5053483;28;20429;-80
2022/09/19 04:33:17;;;;;;;1.65;0.43;;;19.70;96.30;;;;;;5053586;28;20021;-80
2022/09/19 04:35:45;;;;;;;1.75;0.60;;;19.80;96.50;;;;;;5053283;28;20028;-81
2022/09/19 04:38:20;;;;;;;1.27;0.40;;;19.80;98.30;;;;;;5053582;28;20029;-81
2022/09/19 04:40:49;;;;;;;4.70;0.68;;;19.50;97.60;;;;;;5053619;28;20029;-80
2022/09/19 04:43:21;;;;;;;1.40;0.25;;;19.30;98.40;;;;;;5053417;28;20476;-81
2022/09/19 04:45:50;;;;;;;1.63;0.40;;;19.20;97.80;;;;;;5053337;28;20036;-80
2022/09/19 04:48:26;;;;;;;1.50;0.45;;;19.20;97.20;;;;;;5053387;28;20017;-80
2022/09/19 04:50:54;;;;;;;1.63;0.70;;;19.10;97.60;;;;;;5052492;28;20104;-80
2022/09/19 04:53:26;;;;;;;0.50;0.22;;;18.90;97.40;;;;;;5053710;28;20041;-78
2022/09/19 04:55:55;;;;;;;1.73;0.40;;;18.70;97.50;;;;;;5056784;28;20013;-77
2022/09/19 04:58:23;;;;;;;1.15;0.40;;;18.60;98.50;;;;;;5056819;28;20025;-80
2022/09/19 05:00:55;;;;;;;0.47;0.40;;;18.70;96.80;;;;;;5053705;28;20052;-79
2022/09/19 05:03:30;;;;;;;0.57;0.22;;;18.70;95.30;;;;;;5049417;28;20076;-79
2022/09/19 05:05:59;;;;;;;3.53;0.57;;;18.70;94.60;;;;;;5051920;28;20112;-81
2022/09/19 05:08:30;;;;;;;1.67;0.65;;;18.80;95.70;;;;;;5056593;28;20099;-81
2022/09/19 05:11:00;;;;;;;2.35;0.60;;;18.80;95.30;;;;;;5044578;28;20375;-80
2022/09/19 05:13:31;;;;;;;1.20;0.40;;;18.80;96.10;;;;;;5037152;28;20088;-80
2022/09/19 05:16:00;;;;;;;2.58;0.60;;;18.80;94.80;;;;;;5036904;28;20502;-82
2022/09/19 05:18:33;;;;;;;4.03;0.70;;;18.80;93.50;;;;;;5045965;28;20063;-77
2022/09/19 05:21:05;;;;;;;1.70;0.30;;;18.70;94.80;;;;;;5056531;28;20027;-77
2022/09/19 05:23:33;;;;;;;3.88;0.40;;;18.70;96.70;;;;;;5054626;28;20021;-77
2022/09/19 05:26:05;;;;;;;1.20;0.30;;;18.70;97.00;;;;;;5057315;28;20017;-77
2022/09/19 05:28:32;;;;;;;2.85;0.50;;;18.60;98.10;;;;;;5055822;28;20024;-77
2022/09/19 05:31:05;;;;;;;3.45;0.70;;;18.40;96.40;;;;;;5057746;28;20029;-77
2022/09/19 05:33:32;;;;;;;1.40;0.57;;;18.30;94.60;;;;;;5055530;28;20354;-77
2022/09/19 05:36:02;;;;;;;3.35;0.65;;;18.40;94.00;;;;;;5056794;28;20048;-77
2022/09/19 05:38:31;;;;;;;1.23;0.40;;;18.40;92.20;;;;;;5055983;28;20116;-77
2022/09/19 05:41:01;;;;;;;1.88;0.35;;;18.40;93.30;;;;;;5056497;28;20018;-76
2022/09/19 05:43:29;;;;;;;0.93;0.38;;;18.40;96.00;;;;;;5056353;28;20409;-76
2022/09/19 05:45:58;;;;;;;1.33;0.63;;;18.30;94.40;;;;;;5056223;28;20367;-75
2022/09/19 05:48:26;;;;;;;1.52;0.55;;;18.20;94.90;;;;;;5051929;28;20116;-75
2022/09/19 05:50:55;;;;;;;1.52;0.60;;;18.20;95.30;;;;;;5055134;28;20033;-75
2022/09/19 05:56:08;;;;;;;;;;;18.20;94.20;;;;;;5054177;28;20119;-75
2022/09/19 05:58:37;;;;;;;1.05;0.47;;;18.20;93.80;;;;;;5053856;28;20361;-75
2022/09/19 06:01:07;;;;;;;1.23;0.50;;;18.20;94.40;;;;;;5053889;28;20041;-75
2022/09/19 06:03:35;;;;;;;2.65;0.68;;;18.20;94.80;;;;;;5055661;28;20033;-75
2022/09/19 06:06:12;;;;;;;1.52;0.50;;;18.30;93.40;;;;;;5054213;28;20059;-75
2022/09/19 06:08:42;;;;;;;1.98;0.35;;;18.40;92.90;;;;;;5052291;28;20485;-75
2022/09/19 06:11:10;;;;;;;0.60;0.20;;;18.50;92.80;;;;;;5052991;28;20055;-76
2022/09/19 06:16:24;;;;;;;2.90;0.40;;;18.60;95.40;;;;;;5052223;28;20041;-75
2022/09/19 06:18:52;;;;;;;0.32;0.20;;;18.50;94.60;;;;;;5053251;28;20017;-76
2022/09/19 06:21:20;;;;;;;1.45;0.50;;;18.50;91.90;;;;;;5058630;28;20016;-75
2022/09/19 06:23:48;;;;;;;0.85;0.40;;;18.50;90.50;;;;;;5058075;28;20051;-77
2022/09/19 06:26:16;;;;;;;1.08;0.40;;;18.50;91.50;;;;;;5055516;28;20032;-75
2022/09/19 06:28:46;;;;;;;0.93;0.30;;;18.40;90.80;;;;;;5055201;28;20048;-74
2022/09/19 06:31:14;;;;;;;1.08;0.50;;;18.40;90.80;;;;;;5055086;28;20063;-75
2022/09/19 06:33:44;;;;;;;2.45;0.90;;;18.40;90.70;;;;;;5054999;28;20100;-78
2022/09/19 06:36:12;;;;;;;3.25;0.65;;;18.40;94.90;;;;;;5052334;28;20390;-75
2022/09/19 06:38:42;;;;;;;2.72;0.50;;;18.20;95.50;;;;;;5054871;28;20029;-75
2022/09/19 06:41:10;;;;;;;1.65;0.50;;;18.00;96.20;;;;;;5055411;28;20021;-80
2022/09/19 06:43:38;;;;;;;2.92;0.60;;;17.80;96.00;;;;;;5055252;28;20046;-78
2022/09/19 06:46:06;;;;;;;2.00;0.60;;;17.70;96.30;;;;;;5054508;28;20033;-75
2022/09/19 06:48:35;;;;;;;0.88;0.50;;;17.50;97.70;;;;;;5054011;28;20044;-76
2022/09/19 06:51:03;;;;;;;2.90;0.85;;;17.30;97.30;;;;;;5054111;28;20068;-76
2022/09/19 06:53:31;;;;;;;1.42;0.50;;;17.20;97.60;;;;;;5055154;28;20044;-76
2022/09/19 06:55:58;;;;;;;2.92;0.50;;;17.20;97.60;;;;;;5054758;28;20028;-76
2022/09/19 06:58:26;;;;;;;4.40;0.77;;;17.10;97.70;;;;;;5054189;28;20033;-78
2022/09/19 07:00:54;;;;;;;2.13;0.75;;;17.10;97.70;;;;;;5051697;28;20021;-78
2022/09/19 07:03:22;;;;;;;1.80;0.70;;;16.90;98.20;;;;;;5054289;28;20050;-76
2022/09/19 07:05:51;;;;;;;2.90;0.50;;;16.80;97.90;;;;;;5053027;28;20393;-78
2022/09/19 07:08:19;;;;;;;2.15;0.60;;;16.80;98.40;;;;;;5054236;28;20066;-75
2022/09/19 07:10:46;;;;;;;5.15;2.50;;;16.70;98.70;;;;;;5053964;28;20032;-78
2022/09/19 07:13:16;;;;;;;1.73;0.57;;;16.70;99.70;;;;;;5051644;28;20494;-76
2022/09/19 07:15:44;;;;;;;1.10;0.50;;;16.60;98.50;;;;;;5053094;28;20048;-75
2022/09/19 07:18:13;;;;;;;1.30;0.73;;;16.60;98.10;;;;;;5054883;28;20489;-76
2022/09/19 07:20:41;;;;;;;0.90;0.60;;;16.50;99.00;;;;;;5054238;28;20036;-76
2022/09/19 07:23:19;;;;;;;2.80;0.70;;;16.50;98.50;;;;;;5054511;28;20104;-77
2022/09/19 07:25:48;;;;;;;2.22;0.63;;;16.40;99.10;;;;;;5054356;28;20052;-76
2022/09/19 07:28:18;;;;;;;2.35;1.17;;;16.30;98.70;;;;;;5053858;28;20107;-75
2022/09/19 07:30:47;;;;;;;1.50;0.40;;;16.30;98.70;;;;;;5052997;28;20032;-78
2022/09/19 07:33:20;;;;;;;1.88;0.60;;;16.30;99.90;;;;;;5054054;28;20547;-77
2022/09/19 07:35:48;;;;;;;2.70;0.70;;;16.20;99.70;;;;;;5052425;28;20124;-78
2022/09/19 07:38:19;;;;;;;2.10;0.68;;;16.10;99.40;;;;;;5053716;28;20024;-80
2022/09/19 07:40:47;;;;;;;1.98;0.70;;;16.00;99.90;;;;;;5053364;28;20013;-80
2022/09/19 07:43:16;;;;;;;6.90;0.93;;;15.90;99.90;;;;;;5054303;28;20548;-76
2022/09/19 07:45:46;;;;;;;5.25;0.82;;;15.80;99.90;;;;;;5053531;28;20028;-76
2022/09/19 07:48:15;;;;;;;4.75;0.88;;;15.80;99.90;;;;;;5051479;28;20028;-76
2022/09/19 07:50:44;;;;;;;2.58;0.65;;;15.80;99.90;;;;;;5053253;28;20458;-79
2022/09/19 07:53:14;;;;;;;3.53;0.80;;;15.80;99.90;;;;;;5051255;28;20123;-77
2022/09/19 07:55:43;;;;;;;1.92;0.80;;;15.80;99.90;;;;;;5048286;28;20021;-78
2022/09/19 07:58:13;;;;;;;4.25;0.77;;;15.70;99.90;;;;;;5052751;28;20028;-77
2022/09/19 08:00:41;;;;;;;4.22;2.53;;;15.60;99.90;;;;;;5053338;28;20024;-75
2022/09/19 08:03:15;;;;;;;7.32;3.20;;;15.50;99.90;;;;;;5053005;28;20124;-78
2022/09/19 08:05:44;;;;;;;2.40;0.90;;;15.40;99.90;;;;;;5053228;28;20071;-79
2022/09/19 08:08:15;;;;;;;10.18;1.05;;;15.30;99.90;;;;;;5053623;28;20351;-77
2022/09/19 08:10:43;;;;;;;2.78;1.15;;;15.30;99.90;;;;;;5053126;28;20021;-78
2022/09/19 08:13:15;;;;;;;3.70;1.50;;;15.20;99.90;;;;;;5053188;28;20036;-74
2022/09/19 08:15:45;;;;;;;7.90;0.93;;;15.10;99.90;;;;;;5049704;28;20394;-73
2022/09/19 08:18:18;;;;;;;3.70;0.77;;;15.00;99.90;;;;;;5053672;28;20470;-75
2022/09/19 08:20:48;;;;;;;4.45;1.33;;;14.90;99.90;;;;;;5052946;28;20351;-76
2022/09/19 08:23:19;;;;;;;2.10;0.93;;;14.90;99.90;;;;;;5053312;28;20454;-83
2022/09/19 08:25:48;;;;;;;2.10;0.65;;;14.90;99.90;;;;;;5052640;28;20028;-75
2022/09/19 08:28:16;;;;;;;3.08;1.50;;;14.80;99.90;;;;;;5052960;28;20080;-76
2022/09/19 08:30:45;;;;;;;5.25;1.85;;;14.70;99.90;;;;;;5052657;28;20025;-76
2022/09/19 08:33:13;;;;;;;6.15;2.50;;;14.70;99.90;;;;;;5053114;28;20017;-79
2022/09/19 08:35:41;;;;;;;4.82;2.40;;;14.60;99.90;;;;;;5052845;28;20024;-78
2022/09/19 08:38:11;;;;;;;5.68;2.72;;;14.50;99.90;;;;;;5053109;28;20021;-76
2022/09/19 08:41:00;;;;;;;3.20;1.67;;;14.40;99.90;;;;;;5053365;28;20116;-79
2022/09/19 08:43:46;;;;;;;2.15;1.20;;;14.40;99.90;;;;;;5053470;28;20382;-78
2022/09/19 08:46:16;;;;;;;3.42;1.13;;;14.40;99.90;;;;;;5053055;28;20075;-78
2022/09/19 08:48:59;;;;;;;9.52;1.70;;;14.30;99.90;;;;;;5052441;28;20037;-80
2022/09/19 08:51:57;;;;;;;6.05;1.30;;;14.30;99.90;;;;;;5052688;28;20033;-75
2022/09/19 08:54:41;;;;;;;5.80;1.42;;;14.10;99.90;;;;;;5053206;28;20029;-77
2022/09/19 08:57:26;;;;;;;4.75;1.83;;;14.10;99.90;;;;;;5053207;28;20025;-77
2022/09/19 08:59:58;;;;;;;3.08;1.42;;;14.10;99.90;;;;;;5050998;28;20032;-80
2022/09/19 09:02:54;;;;;;;5.32;1.77;;;14.10;99.90;;;;;;5052475;28;20095;-74
2022/09/19 09:05:53;;;;;;;4.97;1.50;;;14.10;99.90;;;;;;5033706;28;20037;-80
2022/09/19 09:08:57;;;;;;;4.53;1.77;;;14.10;99.90;;;;;;5049375;28;20025;-77
2022/09/19 09:11:30;;;;;;;2.45;1.05;;;14.00;99.90;;;;;;5050642;28;20048;-79
2022/09/19 09:14:15;;;;;;;2.30;1.17;;;14.00;99.90;;;;;;5051398;28;20025;-77
2022/09/19 09:16:53;;;;;;;6.40;1.20;;;14.00;99.90;;;;;;5051587;28;20017;-80
2022/09/19 09:19:43;;;;;;;3.60;1.65;;;14.00;99.90;;;;;;5052169;28;20132;-81
2022/09/19 09:22:28;;;;;;;7.65;1.08;;;13.90;99.90;;;;;;5064895;28;20087;-80
2022/09/19 09:25:08;;;;;;;2.10;0.90;;;13.90;99.90;;;;;;5042412;28;20009;-75
2022/09/19 09:27:59;;;;;;;3.08;0.75;;;13.90;99.90;;;;;;5052743;28;20469;-80
2022/09/19 09:30:26;;;;;;;5.35;1.40;;;13.80;99.90;;;;;;5044351;28;20041;-77
2022/09/19 09:33:06;;;;;;;3.05;1.20;;;13.70;99.90;;;;;;5051451;28;20418;-75
2022/09/19 09:35:45;;;;;;;4.20;1.27;;;13.70;99.90;;;;;;5044099;28;20483;-82
2022/09/19 09:38:36;;;;;;;4.13;1.00;;;13.60;99.90;;;;;;5052715;28;20013;-80
2022/09/19 09:44:13;;;;;;;1.83;0.80;;;13.70;99.90;;;;;;5054569;28;20171;-77
2022/09/19 09:47:07;;;;;;;4.45;2.25;;;13.60;99.90;;;;;;5055661;28;20029;-78
2022/09/19 09:49:34;;;;;;;4.13;1.60;;;13.50;99.90;;;;;;5055843;28;20492;-78
2022/09/19 09:52:42;;;;;;;3.40;1.42;;;13.40;99.90;;;;;;5053000;28;20029;-78
2022/09/19 09:58:35;;;;;;;2.92;1.17;;;13.30;99.90;;;;;;5054181;28;20035;-78
2022/09/19 10:04:46;;;;;;;3.17;0.80;;;13.20;99.90;;;;;;5053602;28;20056;-78
2022/09/19 10:07:36;;;;;;;4.95;0.90;;;13.20;99.90;;;;;;5052568;28;20574;-78
2022/09/19 10:10:18;;;;;;;1.98;0.75;;;13.20;99.90;;;;;;5053669;28;20032;-79
2022/09/19 10:13:13;;;;;;;2.17;0.95;;;13.10;99.90;;;;;;5053889;28;20657;-78
2022/09/19 10:15:40;;;;;;;3.60;1.08;;;13.10;99.90;;;;;;5053976;28;20024;-78
2022/09/19 10:18:13;;;;;;;5.25;1.20;;;13.10;99.90;;;;;;5054004;28;20104;-79
2022/09/19 10:20:52;;;;;;;6.47;2.92;;;13.00;99.90;;;;;;5054971;28;20480;-78
2022/09/19 10:23:25;;;;;;;10.75;3.80;;;13.00;99.90;;;;;;5055567;28;20462;-79
2022/09/19 10:25:59;;;;;;;10.73;4.20;;;13.00;99.90;;;;;;5055636;28;20525;-78
2022/09/19 10:28:37;;;;;;;4.25;2.10;;;13.00;99.90;;;;;;5055669;28;20111;-78
2022/09/19 10:31:05;;;;;;;9.32;1.63;;;13.00;99.90;;;;;;5055511;28;20476;-79
2022/09/19 10:33:48;;;;;;;4.95;1.77;;;12.90;99.90;;;;;;5055506;28;20033;-78
2022/09/19 10:36:31;;;;;;;4.95;1.73;;;12.90;99.90;;;;;;5055459;28;20490;-78
2022/09/19 10:39:12;;;;;;;2.65;1.33;;;12.90;99.90;;;;;;5055226;28;20025;-78
2022/09/19 10:41:43;;;;;;;3.20;1.40;;;12.90;99.90;;;;;;5055360;28;20028;-77
2022/09/19 10:44:23;;;;;;;5.45;1.30;;;12.80;99.90;;;;;;5055235;28;20108;-78
2022/09/19 10:46:56;;;;;;;3.30;1.10;;;12.80;99.90;;;;;;5055371;28;20021;-78
2022/09/19 10:49:27;;;;;;;5.75;1.40;;;12.70;99.90;;;;;;5054678;28;20036;-78
2022/09/19 10:51:56;;;;;;;3.22;1.10;;;12.70;99.90;;;;;;5054339;28;20420;-78
2022/09/19 10:54:31;;;;;;;3.92;0.93;;;12.80;99.90;;;;;;5055038;28;20044;-78
2022/09/19 10:56:59;;;;;;;4.13;0.60;;;12.80;99.90;;;;;;5055000;28;20466;-78
2022/09/19 10:59:36;;;;;;;5.35;0.98;;;12.80;99.90;;;;;;5054773;28;20500;-77
2022/09/19 11:02:20;;;;;;;2.90;1.23;;;12.80;99.90;;;;;;5054723;28;20519;-76
2022/09/19 11:05:04;;;;;;;3.58;0.82;;;12.80;99.90;;;;;;5054879;28;20021;-77
2022/09/19 11:07:41;;;;;;;3.17;0.98;;;12.70;99.90;;;;;;5055002;28;20025;-76
2022/09/19 11:10:38;;;;;;;2.05;1.05;;;12.70;99.90;;;;;;5054751;28;20021;-79
2022/09/19 11:13:25;;;;;;;1.92;0.98;;;12.70;99.90;;;;;;5054654;28;20036;-78
2022/09/19 11:16:37;;;;;;;2.45;0.63;;;12.60;99.90;;;;;;5054557;28;20040;-76
2022/09/19 11:19:27;;;;;;;1.70;0.70;;;12.60;99.90;;;;;;5054366;28;20156;-77
2022/09/19 11:22:13;;;;;;;4.05;0.88;;;12.60;99.90;;;;;;5054473;28;20067;-77
2022/09/19 11:24:46;;;;;;;6.50;0.82;;;12.60;99.90;;;;;;5054323;28;20139;-78
2022/09/19 11:27:32;;;;;;;3.72;0.75;;;12.60;99.90;;;;;;5054595;28;20021;-77
2022/09/19 11:30:15;;;;;;;6.32;1.35;;;12.60;99.90;;;;;;5054344;28;20033;-79
2022/09/19 11:33:05;;;;;;;4.00;1.83;;;12.50;99.90;;;;;;5054186;28;20041;-78
2022/09/19 11:35:47;;;;;;;4.75;1.60;;;12.30;99.90;;;;;;5033414;28;20116;-74
2022/09/19 11:38:32;;;;;;;3.33;1.00;;;12.30;99.90;;;;;;5053283;28;20470;-79
2022/09/19 11:41:08;;;;;;;2.25;0.90;;;12.30;99.90;;;;;;5052792;28;20025;-78
2022/09/19 11:43:44;;;;;;;5.70;1.33;;;12.40;99.90;;;;;;5053178;28;20017;-78
2022/09/19 11:46:21;;;;;;;3.78;1.02;;;12.40;99.90;;;;;;5050999;28;20040;-78
2022/09/19 11:49:09;;;;;;;5.15;1.15;;;12.40;99.90;;;;;;5053960;28;20095;-78
2022/09/19 11:51:51;;;;;;;3.53;0.65;;;12.50;99.90;;;;;;5053956;28;20028;-79
2022/09/19 11:54:44;;;;;;;3.20;1.13;;;12.50;99.90;;;;;;5053184;28;20028;-78
2022/09/19 11:57:30;;;;;;;1.70;1.20;;;12.50;99.90;;;;;;5052322;28;20017;-79
2022/09/19 12:00:00;;;;;;;;;;;12.50;99.90;;;;;;5053253;28;20079;-79
2022/09/19 12:02:46;;;;;;;2.40;0.90;;;12.50;99.90;;;;;;5052565;28;19916;-79
2022/09/19 12:05:29;;;;;;;5.97;0.85;;;12.50;99.90;;;;;;5052215;28;20032;-79
2022/09/19 12:08:28;;;;;;;3.35;1.10;;;12.40;99.90;;;;;;5053213;28;20019;-78
2022/09/19 12:11:08;;;;;;;5.40;1.13;;;12.40;99.90;;;;;;5034063;28;20079;-79
2022/09/19 12:13:59;;;;;;;4.43;1.80;;;12.40;99.90;;;;;;5051777;28;20032;-79
2022/09/19 12:16:46;;;;;;;4.28;1.48;;;12.40;99.90;;;;;;5051444;28;20500;-79
2022/09/19 12:19:24;;;;;;;;;;;12.40;99.90;;;;;;5051498;28;20040;-78
2022/09/19 12:22:00;;;;;;;2.65;1.08;;;12.40;99.90;;;;;;5050162;28;19967;-78
2022/09/19 12:24:52;;;;;;;2.90;1.17;;;12.40;99.90;;;;;;5051195;28;20028;-78
2022/09/19 12:27:39;;;;;;;2.25;0.90;;;12.30;99.90;;;;;;5051016;28;20039;-78
2022/09/19 12:30:18;;;;;;;7.93;1.40;;;12.30;99.90;;;;;;5051123;28;20040;-78
2022/09/19 12:33:06;;;;;;;1.38;1.00;;;12.30;99.90;;;;;;5050886;28;20064;-79
2022/09/19 12:36:07;;;;;;;3.50;1.30;;;12.20;99.90;;;;;;5050757;28;20024;-79
2022/09/19 12:39:04;;;;;;;2.40;1.13;;;12.20;99.90;;;;;;5049977;28;20032;-78
2022/09/19 12:41:55;;;;;;;1.92;1.05;;;12.20;99.90;;;;;;5051209;28;20029;-78
2022/09/19 12:44:35;;;;;;;2.83;1.13;;;12.20;99.90;;;;;;5051729;28;20045;-78
2022/09/19 12:47:21;;;;;;;3.72;1.17;;;12.20;99.90;;;;;;5048590;28;20424;-79
2022/09/19 12:49:57;;;;;;;3.20;1.20;;;12.10;99.90;;;;;;5050936;28;20025;-79
2022/09/19 12:52:56;;;;;;;3.42;1.30;;;12.10;99.90;;;;;;5050553;28;20043;-79
2022/09/19 12:55:38;;;;;;;6.78;1.23;;;12.20;99.90;;;;;;5049581;28;20021;-79
2022/09/19 12:58:16;;;;;;;2.30;1.10;;;12.10;99.90;;;;;;5050098;28;20029;-77
2022/09/19 13:00:45;;;;;;;6.00;1.60;;;12.20;99.90;;;;;;5050351;28;20537;-78
2022/09/19 13:03:25;;;;;;;3.30;1.13;;;12.20;99.90;;;;;;5050833;28;20067;-78
2022/09/19 13:06:05;;;;;;;2.45;1.23;;;12.30;99.90;;;;;;5051703;28;20096;-77
2022/09/19 13:08:47;;;;;;;2.65;1.10;;;12.30;99.90;;;;;;5050567;28;20021;-78
2022/09/19 13:11:34;;;;;;;4.57;1.85;;;12.20;99.90;;;;;;5051843;28;20162;-77
2022/09/19 13:14:16;;;;;;;7.45;1.30;;;12.20;99.90;;;;;;5052349;28;20029;-77
2022/09/19 13:25:18;;;;;;;5.07;1.13;;;12.30;99.90;;;;;;5057389;28;20108;-77
2022/09/19 13:28:06;;;;;;;3.22;1.25;;;12.30;99.90;;;;;;5054463;28;20032;-78
2022/09/19 13:30:50;;;;;;;1.70;0.80;;;12.30;99.90;;;;;;5053589;28;20474;-78
2022/09/19 13:33:49;;;;;;;5.20;1.30;;;12.20;99.90;;;;;;5053577;28;20079;-77
2022/09/19 13:36:19;;;;;;;2.35;1.13;;;12.20;99.90;;;;;;5053577;28;20033;-77
2022/09/19 13:38:52;;;;;;;2.55;1.15;;;12.20;99.90;;;;;;5055502;28;20446;-77
2022/09/19 13:41:33;;;;;;;3.50;1.02;;;12.10;99.90;;;;;;5055428;28;20474;-77
2022/09/19 13:44:10;;;;;;;2.05;0.90;;;12.10;99.90;;;;;;5055427;28;20470;-77
2022/09/19 13:46:56;;;;;;;2.63;0.80;;;12.10;99.90;;;;;;5054632;28;20685;-76
2022/09/19 13:49:35;;;;;;;1.45;0.73;;;12.20;99.90;;;;;;5052476;28;20024;-77
2022/09/19 13:52:15;;;;;;;3.28;0.90;;;12.20;99.90;;;;;;5053091;28;20037;-77
2022/09/19 13:54:52;;;;;;;4.32;1.52;;;12.20;99.90;;;;;;5053268;28;20040;-78
2022/09/19 13:57:30;;;;;;;3.13;1.23;;;12.20;99.90;;;;;;5053625;28;20021;-77
2022/09/19 14:00:32;;;;;;;3.63;0.73;;;12.20;99.90;;;;;;5053010;28;20106;-77
2022/09/19 14:03:06;;;;;;;1.63;0.90;;;12.10;99.90;;;;;;5053336;28;20037;-78